createdAt,value
2022-12-06T00:02:23.339Z,99721.09
2022-12-06T00:04:53.303Z,99720.88
2022-12-06T00:07:23.204Z,99708.34
2022-12-06T00:09:55.714Z,99708.69
2022-12-06T00:12:25.529Z,99712.47
2022-12-06T00:14:55.550Z,99720.22
2022-12-06T00:17:25.435Z,99713.28
2022-12-06T00:19:55.335Z,99715.75
2022-12-06T00:22:25.335Z,99713.63
2022-12-06T00:24:57.835Z,99717.72
2022-12-06T00:27:27.889Z,99716.66
2022-12-06T00:29:58.076Z,99718.59
2022-12-06T00:32:28.228Z,99710.72
2022-12-06T00:34:58.178Z,99707.38
2022-12-06T00:37:28.093Z,99700.91
2022-12-06T00:40:01.316Z,99696.13
2022-12-06T00:42:31.506Z,99704.38
2022-12-06T00:45:02.709Z,99698.28
2022-12-06T00:47:32.642Z,99698.38
2022-12-06T00:50:02.506Z,99694.28
2022-12-06T00:52:32.906Z,99691.56
2022-12-06T00:55:05.381Z,99692.59
2022-12-06T00:57:35.501Z,99690.31
2022-12-06T01:00:05.505Z,99686.13
2022-12-06T01:02:35.356Z,99687.22
2022-12-06T01:05:05.198Z,99685.78
2022-12-06T01:07:35.109Z,99687.41
2022-12-06T01:10:09.186Z,99682.63
2022-12-06T01:12:38.921Z,99681.78
2022-12-06T01:15:09.813Z,99687.84
2022-12-06T01:17:39.553Z,99682.44
2022-12-06T01:20:10.413Z,99682.88
2022-12-06T01:22:40.138Z,99679.09
2022-12-06T01:25:12.581Z,99688.06
2022-12-06T01:27:42.285Z,99690.75
2022-12-06T01:30:12.713Z,99683.47
2022-12-06T01:32:42.442Z,99684.50
2022-12-06T01:35:12.393Z,99686.19
2022-12-06T01:37:42.116Z,99670.78
2022-12-06T01:40:15.873Z,99674.50
2022-12-06T01:42:45.681Z,99671.59
2022-12-06T01:45:15.369Z,99674.09
2022-12-06T01:47:46.841Z,99664.97
2022-12-06T01:50:21.017Z,99668.06
2022-12-06T01:52:56.318Z,99680.19
2022-12-06T01:55:31.783Z,99680.88
2022-12-06T01:58:09.109Z,99676.09
2022-12-06T02:00:38.825Z,99673.97
2022-12-06T02:03:16.223Z,99660.69
2022-12-06T02:05:46.171Z,99669.69
2022-12-06T02:08:17.317Z,99664.69
2022-12-06T02:10:49.688Z,99673.13
2022-12-06T02:13:19.768Z,99670.66
2022-12-06T02:15:59.030Z,99671.00
2022-12-06T02:18:37.730Z,99670.09
2022-12-06T02:21:18.886Z,99678.56
2022-12-06T02:24:18.518Z,99672.56
2022-12-06T02:26:54.166Z,99666.19
2022-12-06T02:29:48.495Z,99664.47
2022-12-06T02:32:24.095Z,99661.44
2022-12-06T02:35:01.157Z,99662.66
2022-12-06T02:37:35.572Z,99658.31
2022-12-06T02:40:09.600Z,99667.31
2022-12-06T02:42:44.673Z,99665.19
2022-12-06T02:45:18.405Z,99665.03
2022-12-06T02:47:53.856Z,99668.34
2022-12-06T02:50:29.421Z,99669.47
2022-12-06T02:53:03.985Z,99666.44
2022-12-06T02:55:35.719Z,99659.34
2022-12-06T02:58:05.765Z,99663.72
2022-12-06T03:00:40.682Z,99654.94
2022-12-06T03:03:42.910Z,99663.16
2022-12-06T03:06:28.429Z,99659.50
2022-12-06T03:09:09.108Z,99659.28
2022-12-06T03:11:51.457Z,99664.66
2022-12-06T03:14:25.620Z,99649.53
2022-12-06T03:17:01.990Z,99654.97
2022-12-06T03:19:35.715Z,99636.63
2022-12-06T03:22:09.313Z,99644.38
2022-12-06T03:24:42.241Z,99635.44
2022-12-06T03:27:15.355Z,99628.34
2022-12-06T03:29:49.163Z,99621.75
2022-12-06T03:32:23.422Z,99619.22
2022-12-06T03:35:00.135Z,99605.44
2022-12-06T03:37:33.040Z,99617.94
2022-12-06T03:40:10.182Z,99604.63
2022-12-06T03:42:40.493Z,99611.31
2022-12-06T03:45:14.323Z,99610.09
2022-12-06T03:47:51.244Z,99615.06
2022-12-06T03:50:28.801Z,99609.41
2022-12-06T03:52:58.725Z,99615.25
2022-12-06T03:55:29.760Z,99622.47
2022-12-06T03:57:59.537Z,99626.31
2022-12-06T04:00:29.226Z,99611.13
2022-12-06T04:02:58.906Z,99606.13
2022-12-06T04:05:32.461Z,99602.59
2022-12-06T04:08:02.239Z,99605.09
2022-12-06T04:10:32.160Z,99593.03
2022-12-06T04:13:06.257Z,99589.72
2022-12-06T04:15:38.917Z,99591.34
2022-12-06T04:18:10.997Z,99590.13
2022-12-06T04:21:01.010Z,99591.28
2022-12-06T04:23:31.587Z,99584.72
2022-12-06T04:26:01.327Z,99589.25
2022-12-06T04:28:43.594Z,99590.72
2022-12-06T04:31:26.281Z,99586.09
2022-12-06T04:34:08.630Z,99590.28
2022-12-06T04:36:54.347Z,99594.91
2022-12-06T04:39:24.118Z,99594.09
2022-12-06T04:42:06.425Z,99598.00
2022-12-06T04:44:36.299Z,99578.91
2022-12-06T04:47:06.608Z,99583.88
2022-12-06T04:49:36.645Z,99582.44
2022-12-06T04:52:10.687Z,99580.16
2022-12-06T04:54:40.651Z,99575.19
2022-12-06T04:57:11.369Z,99573.06
2022-12-06T04:59:42.183Z,99583.91
2022-12-06T05:02:15.525Z,99579.31
2022-12-06T05:04:45.486Z,99582.41
2022-12-06T05:07:17.792Z,99579.72
2022-12-06T05:09:47.542Z,99573.94
2022-12-06T05:12:17.228Z,99563.09
2022-12-06T05:14:46.947Z,99562.31
2022-12-06T05:17:16.632Z,99557.31
2022-12-06T05:19:46.375Z,99558.97
2022-12-06T05:22:18.637Z,99546.09
2022-12-06T05:24:48.488Z,99548.97
2022-12-06T05:27:18.218Z,99547.75
2022-12-06T05:29:47.922Z,99545.06
2022-12-06T05:32:17.623Z,99554.38
2022-12-06T05:34:47.699Z,99548.97
2022-12-06T05:37:20.917Z,99545.47
2022-12-06T05:39:50.722Z,99541.72
2022-12-06T05:42:22.556Z,99549.00
2022-12-06T05:44:52.534Z,99542.94
2022-12-06T05:47:22.274Z,99539.22
2022-12-06T05:49:51.957Z,99542.56
2022-12-06T05:52:24.222Z,99539.44
2022-12-06T05:54:53.944Z,99538.41
2022-12-06T05:57:23.745Z,99542.78
2022-12-06T05:59:53.517Z,99535.72
2022-12-06T06:02:23.232Z,99536.94
2022-12-06T06:04:53.377Z,99539.41
2022-12-06T06:07:25.678Z,99540.91
2022-12-06T06:09:55.368Z,99538.81
2022-12-06T06:12:25.082Z,99544.63
2022-12-06T06:14:54.804Z,99544.81
2022-12-06T06:17:24.487Z,99528.41
2022-12-06T06:19:54.533Z,99540.03
2022-12-06T06:22:26.820Z,99527.38
2022-12-06T06:24:56.537Z,99525.72
2022-12-06T06:27:26.222Z,99529.47
2022-12-06T06:29:56.001Z,99520.94
2022-12-06T06:32:25.748Z,99527.00
2022-12-06T06:34:55.409Z,99537.34
2022-12-06T06:37:27.728Z,99530.94
2022-12-06T06:39:57.678Z,99531.53
2022-12-06T06:42:27.746Z,99522.41
2022-12-06T06:44:57.459Z,99531.94
2022-12-06T06:47:27.365Z,99531.13
2022-12-06T06:49:57.104Z,99523.66
2022-12-06T06:52:29.718Z,99534.44
2022-12-06T06:54:59.389Z,99529.25
2022-12-06T06:57:29.123Z,99525.72
2022-12-06T06:59:59.385Z,99526.56
2022-12-06T07:02:29.284Z,99526.97
2022-12-06T07:04:59.067Z,99530.69
2022-12-06T07:07:31.636Z,99534.03
2022-12-06T07:10:01.654Z,99536.31
2022-12-06T07:12:31.628Z,99536.94
2022-12-06T07:15:01.683Z,99531.34
2022-12-06T07:17:31.426Z,99530.28
2022-12-06T07:20:01.470Z,99529.47
2022-12-06T07:22:35.617Z,99521.78
2022-12-06T07:25:05.743Z,99529.47
2022-12-06T07:27:37.695Z,99533.59
2022-12-06T07:30:11.311Z,99533.63
2022-12-06T07:32:44.218Z,99533.19
2022-12-06T07:35:13.991Z,99532.59
2022-12-06T07:37:48.310Z,99540.25
2022-12-06T07:40:30.721Z,99543.19
2022-12-06T07:43:24.714Z,99537.78
2022-12-06T07:45:54.503Z,99549.59
2022-12-06T07:48:24.350Z,99550.84
2022-12-06T07:50:54.605Z,99550.63
2022-12-06T07:53:26.986Z,99551.28
2022-12-06T07:55:56.657Z,99554.41
2022-12-06T07:58:26.402Z,99553.56
2022-12-06T08:00:56.103Z,99551.03
2022-12-06T08:03:26.860Z,99561.44
2022-12-06T08:05:57.394Z,99549.41
2022-12-06T08:08:30.039Z,99550.63
2022-12-06T08:11:01.742Z,99553.97
2022-12-06T08:13:32.046Z,99559.59
2022-12-06T08:16:02.223Z,99556.47
2022-12-06T08:18:33.966Z,99565.59
2022-12-06T08:21:03.714Z,99570.56
2022-12-06T08:23:36.360Z,99579.72
2022-12-06T08:26:08.694Z,99576.19
2022-12-06T08:28:40.114Z,99583.03
2022-12-06T08:31:11.528Z,99581.75
2022-12-06T08:33:41.637Z,99579.44
2022-12-06T08:36:13.003Z,99586.56
2022-12-06T08:38:45.690Z,99590.94
2022-12-06T08:41:27.946Z,99598.00
2022-12-06T08:43:58.371Z,99600.03
2022-12-06T08:46:28.587Z,99597.56
2022-12-06T08:48:58.726Z,99595.94
2022-12-06T08:51:29.904Z,99595.47
2022-12-06T08:54:02.339Z,99598.81
2022-12-06T08:56:32.186Z,99608.81
2022-12-06T08:59:02.028Z,99600.25
2022-12-06T09:01:37.851Z,99600.50
2022-12-06T09:04:09.922Z,99599.19
2022-12-06T09:06:41.508Z,99609.00
2022-12-06T09:09:15.162Z,99604.66
2022-12-06T09:11:45.829Z,99603.56
2022-12-06T09:14:21.514Z,99611.44
2022-12-06T09:16:53.885Z,99610.38
2022-12-06T09:19:23.696Z,99610.81
2022-12-06T09:21:53.452Z,99616.84
2022-12-06T09:24:25.763Z,99611.28
2022-12-06T09:26:55.495Z,99611.28
2022-12-06T09:29:25.558Z,99623.13
2022-12-06T09:31:55.280Z,99616.31
2022-12-06T09:34:25.165Z,99619.59
2022-12-06T09:37:00.265Z,99621.09
2022-12-06T09:39:36.427Z,99630.84
2022-12-06T09:42:33.174Z,99623.34
2022-12-06T09:45:13.209Z,99617.88
2022-12-06T09:48:03.113Z,99618.13
2022-12-06T09:50:44.949Z,99624.34
2022-12-06T09:53:26.698Z,99626.06
2022-12-06T09:56:09.206Z,99621.88
2022-12-06T09:58:53.131Z,99617.94
2022-12-06T10:01:29.521Z,99623.97
2022-12-06T10:04:25.767Z,99629.19
2022-12-06T10:07:07.810Z,99617.97
2022-12-06T10:09:48.169Z,99622.06
2022-12-06T10:12:36.431Z,99618.72
2022-12-06T10:15:18.372Z,99622.47
2022-12-06T10:18:06.266Z,99620.78
2022-12-06T10:20:44.437Z,99610.22
2022-12-06T10:23:27.672Z,99619.16
2022-12-06T10:26:07.588Z,99611.69
2022-12-06T10:28:48.310Z,99614.19
2022-12-06T10:31:31.089Z,99610.69
2022-12-06T10:34:07.571Z,99606.75
2022-12-06T10:36:47.480Z,99605.06
2022-12-06T10:39:23.138Z,99603.41
2022-12-06T10:42:01.111Z,99600.03
2022-12-06T10:44:38.063Z,99600.06
2022-12-06T10:47:12.305Z,99589.22
2022-12-06T10:49:55.271Z,99588.41
2022-12-06T10:52:37.076Z,99585.88
2022-12-06T10:55:22.194Z,99583.84
2022-12-06T10:57:58.279Z,99588.47
2022-12-06T11:00:33.959Z,99590.56
2022-12-06T11:03:13.194Z,99588.69
2022-12-06T11:05:46.383Z,99585.94
2022-12-06T11:08:22.578Z,99584.72
2022-12-06T11:10:54.488Z,99595.13
2022-12-06T11:13:29.921Z,99590.13
2022-12-06T11:16:08.112Z,99587.84
2022-12-06T11:18:38.567Z,99590.56
2022-12-06T11:21:21.091Z,99582.22
2022-12-06T11:23:58.982Z,99585.16
2022-12-06T11:26:37.610Z,99584.31
2022-12-06T11:29:14.130Z,99578.94
2022-12-06T11:31:49.724Z,99578.91
2022-12-06T11:34:23.149Z,99575.38
2022-12-06T11:36:59.891Z,99576.41
2022-12-06T11:39:34.349Z,99573.94
2022-12-06T11:42:07.125Z,99573.31
2022-12-06T11:44:48.058Z,99574.75
2022-12-06T11:47:24.531Z,99566.84
2022-12-06T11:50:00.378Z,99565.59
2022-12-06T11:52:39.403Z,99560.63
2022-12-06T11:55:18.109Z,99569.34
2022-12-06T11:57:52.963Z,99560.63
2022-12-06T12:00:24.534Z,99566.00
2022-12-06T12:02:59.571Z,99557.94
2022-12-06T12:05:34.486Z,99556.47
2022-12-06T12:08:08.241Z,99562.72
2022-12-06T12:10:39.763Z,99563.31
2022-12-06T12:13:36.762Z,99558.97
2022-12-06T12:16:14.500Z,99556.91
2022-12-06T12:18:55.091Z,99558.13
2022-12-06T12:21:41.738Z,99558.78
2022-12-06T12:27:46.036Z,99557.72
2022-12-06T12:30:35.430Z,99554.81
2022-12-06T12:33:20.326Z,99561.88
2022-12-06T12:35:55.366Z,99559.19
2022-12-06T12:38:41.456Z,99558.97
2022-12-06T12:41:26.192Z,99563.75
2022-12-06T12:44:35.710Z,99562.72
2022-12-06T12:46:59.868Z,99564.78
2022-12-06T12:49:32.920Z,99555.22
2022-12-06T12:52:24.193Z,99562.91
2022-12-06T12:55:02.414Z,99565.59
2022-12-06T12:57:32.548Z,99564.56
2022-12-06T13:00:04.312Z,99575.56
2022-12-06T13:02:37.852Z,99573.09
2022-12-06T13:05:34.219Z,99564.38
2022-12-06T13:08:14.700Z,99564.56
2022-12-06T13:10:47.320Z,99566.03
2022-12-06T13:13:20.144Z,99568.09
2022-12-06T13:15:52.568Z,99565.19
2022-12-06T13:18:25.585Z,99564.38
2022-12-06T13:20:57.824Z,99564.81
2022-12-06T13:23:34.049Z,99558.97
2022-12-06T13:26:09.961Z,99576.00
2022-12-06T13:28:44.691Z,99564.38
2022-12-06T13:31:19.099Z,99561.88
2022-12-06T13:33:54.989Z,99569.78
2022-12-06T13:36:27.044Z,99569.13
2022-12-06T13:38:59.418Z,99572.47
2022-12-06T13:42:07.194Z,99566.03
2022-12-06T13:44:44.393Z,99586.81
2022-12-06T13:47:53.039Z,99584.50
2022-12-06T13:50:54.634Z,99583.06
2022-12-06T13:53:26.346Z,99584.72
2022-12-06T13:56:02.366Z,99584.09
2022-12-06T13:58:52.915Z,99593.06
2022-12-06T14:01:40.567Z,99595.94
2022-12-06T14:09:43.023Z,99599.88
2022-12-06T14:12:21.548Z,99600.91
2022-12-06T14:14:59.266Z,99600.50
2022-12-06T14:18:01.554Z,99606.31
2022-12-06T14:20:30.217Z,99610.69
2022-12-06T14:23:00.175Z,99618.81
2022-12-06T14:25:31.915Z,99610.50
2022-12-06T14:28:09.557Z,99609.66
2022-12-06T14:30:39.498Z,99617.56
2022-12-06T14:33:20.793Z,99614.47
2022-12-06T14:35:53.281Z,99616.50
2022-12-06T14:38:25.848Z,99614.66
2022-12-06T14:41:08.802Z,99615.47
2022-12-06T14:43:42.441Z,99608.41
2022-12-06T14:46:17.285Z,99613.00
2022-12-06T14:49:00.470Z,99608.84
2022-12-06T14:51:38.648Z,99605.88
2022-12-06T14:54:20.508Z,99605.06
2022-12-06T14:56:50.320Z,99610.06
2022-12-06T15:00:11.077Z,99605.50
2022-12-06T15:02:25.362Z,99607.59
2022-12-06T15:04:55.124Z,99607.16
2022-12-06T15:07:36.356Z,99606.75
2022-12-06T15:10:25.403Z,99608.41
2022-12-06T15:12:55.934Z,99598.66
2022-12-06T15:15:40.625Z,99601.56
2022-12-06T15:18:19.750Z,99603.88
2022-12-06T15:20:51.600Z,99601.34
2022-12-06T15:23:29.547Z,99595.94
2022-12-06T15:25:59.928Z,99597.22
2022-12-06T15:28:29.915Z,99594.72
2022-12-06T15:31:02.391Z,99604.06
2022-12-06T15:33:32.248Z,99588.06
2022-12-06T15:36:02.254Z,99599.28
2022-12-06T15:38:32.008Z,99596.56
2022-12-06T15:41:01.797Z,99598.88
2022-12-06T15:43:33.939Z,99596.56
2022-12-06T15:46:07.861Z,99601.97
2022-12-06T15:48:37.602Z,99616.34
2022-12-06T15:51:11.201Z,99604.69
2022-12-06T15:53:42.745Z,99608.00
2022-12-06T15:56:17.540Z,99600.13
2022-12-06T15:58:48.525Z,99605.94
2022-12-06T16:01:24.325Z,99604.66
2022-12-06T16:03:54.638Z,99604.47
2022-12-06T16:06:27.182Z,99608.63
2022-12-06T16:08:57.391Z,99605.09
2022-12-06T16:11:29.118Z,99598.03
2022-12-06T16:13:58.882Z,99596.56
2022-12-06T16:16:31.483Z,99598.88
2022-12-06T16:19:01.994Z,99606.31
2022-12-06T16:21:33.573Z,99586.81
2022-12-06T16:24:17.727Z,99592.22
2022-12-06T16:26:48.143Z,99578.88
2022-12-06T16:29:21.065Z,99582.63
2022-12-06T16:31:54.517Z,99584.72
2022-12-06T16:34:25.108Z,99585.56
2022-12-06T16:37:00.594Z,99584.28
2022-12-06T16:39:33.680Z,99585.56
2022-12-06T16:42:04.142Z,99591.16
2022-12-06T16:44:33.958Z,99581.81
2022-12-06T16:47:10.686Z,99593.00
2022-12-06T16:49:47.453Z,99588.03
2022-12-06T16:52:18.288Z,99593.88
2022-12-06T16:54:48.353Z,99583.91
2022-12-06T16:57:19.575Z,99589.50
2022-12-06T16:59:49.356Z,99583.91
2022-12-06T17:02:29.074Z,99576.84
2022-12-06T17:05:01.115Z,99582.44
2022-12-06T17:07:31.542Z,99568.94
2022-12-06T17:10:01.414Z,99575.59
2022-12-06T17:12:32.451Z,99571.44
2022-12-06T17:15:03.424Z,99574.34
2022-12-06T17:17:36.451Z,99573.72
2022-12-06T17:20:08.129Z,99568.94
2022-12-06T17:22:38.157Z,99561.44
2022-12-06T17:25:08.863Z,99559.78
2022-12-06T17:27:40.032Z,99560.00
2022-12-06T17:30:17.685Z,99561.88
2022-12-06T17:32:50.411Z,99560.41
2022-12-06T17:35:20.432Z,99563.13
2022-12-06T17:37:50.125Z,99565.00
2022-12-06T17:40:20.099Z,99565.19
2022-12-06T17:43:02.489Z,99572.47
2022-12-06T17:45:32.283Z,99567.91
2022-12-06T17:48:04.632Z,99571.84
2022-12-06T17:50:35.838Z,99580.59
2022-12-06T17:53:05.580Z,99571.03
2022-12-06T17:55:35.302Z,99566.66
2022-12-06T17:58:05.066Z,99580.53
2022-12-06T18:00:34.867Z,99575.78
2022-12-06T18:03:07.170Z,99573.06
2022-12-06T18:05:36.887Z,99576.41
2022-12-06T18:08:06.712Z,99588.03
2022-12-06T18:10:36.438Z,99584.72
2022-12-06T18:13:07.782Z,99585.94
2022-12-06T18:15:41.881Z,99594.47
2022-12-06T18:18:14.195Z,99594.03
2022-12-06T18:20:44.058Z,99598.41
2022-12-06T18:23:15.000Z,99598.38
2022-12-06T18:25:44.904Z,99606.72
2022-12-06T18:28:14.771Z,99601.75
2022-12-06T18:30:44.608Z,99605.06
2022-12-06T18:33:20.747Z,99601.31
2022-12-06T18:35:53.585Z,99605.50
2022-12-06T18:38:23.288Z,99609.25
2022-12-06T18:40:52.987Z,99605.06
2022-12-06T18:43:22.737Z,99609.47
2022-12-06T18:45:59.553Z,99603.22
2022-12-06T18:48:33.567Z,99602.16
2022-12-06T18:51:07.813Z,99598.00
2022-12-06T18:53:37.774Z,99602.16
2022-12-06T18:56:11.452Z,99594.31
2022-12-06T18:58:41.150Z,99582.66
2022-12-06T19:01:15.227Z,99583.69
2022-12-06T19:03:48.738Z,99587.66
2022-12-06T19:06:22.560Z,99576.00
2022-12-06T19:08:56.587Z,99580.78
2022-12-06T19:11:26.903Z,99579.72
2022-12-06T19:13:57.895Z,99578.91
2022-12-06T19:16:29.798Z,99579.75
2022-12-06T19:19:03.629Z,99574.34
2022-12-06T19:21:34.585Z,99571.00
2022-12-06T19:24:04.801Z,99562.69
2022-12-06T19:26:35.023Z,99569.31
2022-12-06T19:29:05.996Z,99572.25
2022-12-06T19:31:35.996Z,99558.53
2022-12-06T19:34:08.386Z,99575.53
2022-12-06T19:36:38.142Z,99567.81
2022-12-06T19:39:08.851Z,99562.66
2022-12-06T19:41:59.070Z,99559.59
2022-12-06T19:44:26.846Z,99555.00
2022-12-06T19:46:56.629Z,99546.91
2022-12-06T19:49:30.014Z,99553.78
2022-12-06T19:51:59.994Z,99550.66
2022-12-06T19:54:31.780Z,99553.56
2022-12-06T19:57:03.387Z,99551.50
2022-12-06T19:59:35.620Z,99554.00
2022-12-06T20:02:06.041Z,99543.19
2022-12-06T20:04:41.677Z,99542.97
2022-12-06T20:07:12.280Z,99544.84
2022-12-06T20:09:42.067Z,99547.97
2022-12-06T20:12:13.712Z,99541.91
2022-12-06T20:14:45.652Z,99540.03
2022-12-06T20:17:17.247Z,99529.25
2022-12-06T20:19:49.874Z,99521.09
2022-12-06T20:22:22.842Z,99524.22
2022-12-06T20:24:52.675Z,99516.56
2022-12-06T20:27:43.455Z,99512.84
2022-12-06T20:30:14.883Z,99502.88
2022-12-06T20:32:45.342Z,99505.75
2022-12-06T20:35:18.248Z,99502.00
2022-12-06T20:37:48.157Z,99503.25
2022-12-06T20:40:18.067Z,99505.69
2022-12-06T20:42:49.645Z,99501.31
2022-12-06T20:45:20.547Z,99487.34
2022-12-06T20:47:53.743Z,99482.88
2022-12-06T20:50:26.428Z,99480.56
2022-12-06T20:52:56.103Z,99479.06
2022-12-06T20:55:26.332Z,99477.56
2022-12-06T20:57:56.100Z,99465.72
2022-12-06T21:00:26.078Z,99471.25
2022-12-06T21:02:56.704Z,99464.16
2022-12-06T21:05:29.239Z,99466.66
2022-12-06T21:07:59.089Z,99461.66
2022-12-06T21:10:28.993Z,99462.72
2022-12-06T21:13:01.469Z,99466.28
2022-12-06T21:15:35.508Z,99458.38
2022-12-06T21:18:05.222Z,99469.13
2022-12-06T21:20:40.146Z,99463.66
2022-12-06T21:23:09.907Z,99462.44
2022-12-06T21:25:39.940Z,99460.16
2022-12-06T21:28:09.641Z,99450.00
2022-12-06T21:30:39.383Z,99444.59
2022-12-06T21:33:09.574Z,99446.63
2022-12-06T21:35:42.309Z,99461.38
2022-12-06T21:38:12.025Z,99443.59
2022-12-06T21:40:42.100Z,99444.19
2022-12-06T21:43:12.916Z,99442.13
2022-12-06T21:45:43.875Z,99441.69
2022-12-06T21:48:13.554Z,99435.34
2022-12-06T21:50:46.121Z,99416.69
2022-12-06T21:53:15.850Z,99428.25
2022-12-06T21:55:45.557Z,99417.91
2022-12-06T21:58:15.532Z,99422.88
2022-12-06T22:00:45.258Z,99423.13
2022-12-06T22:03:20.962Z,99423.03
2022-12-06T22:05:55.121Z,99430.97
2022-12-06T22:08:24.948Z,99419.78
2022-12-06T22:10:55.177Z,99424.09
2022-12-06T22:13:24.870Z,99429.72
2022-12-06T22:15:54.599Z,99427.28
2022-12-06T22:18:24.406Z,99425.19
2022-12-06T22:21:02.566Z,99417.16
2022-12-06T22:23:33.773Z,99419.94
2022-12-06T22:26:08.007Z,99417.63
2022-12-06T22:28:38.409Z,99421.28
2022-12-06T22:31:12.709Z,99413.09
2022-12-06T22:33:42.751Z,99414.53
2022-12-06T22:36:15.941Z,99412.69
2022-12-06T22:38:45.802Z,99408.59
2022-12-06T22:41:15.480Z,99407.38
2022-12-06T22:43:45.252Z,99401.28
2022-12-06T22:46:17.347Z,99399.81
2022-12-06T22:48:47.399Z,99402.25
2022-12-06T22:51:21.791Z,99401.03
2022-12-06T22:53:57.169Z,99390.59
2022-12-06T22:56:27.179Z,99381.06
2022-12-06T22:58:57.661Z,99374.41
2022-12-06T23:01:30.257Z,99361.47
2022-12-06T23:04:02.760Z,99364.53
2022-12-06T23:06:36.131Z,99356.03
2022-12-06T23:09:06.199Z,99355.81
2022-12-06T23:11:37.814Z,99367.84
2022-12-06T23:14:08.233Z,99359.25
2022-12-06T23:16:38.369Z,99362.44
2022-12-06T23:19:08.297Z,99354.13
2022-12-06T23:21:40.976Z,99361.25
2022-12-06T23:24:14.371Z,99354.63
2022-12-06T23:26:48.992Z,99355.91
2022-12-06T23:29:22.875Z,99357.16
2022-12-06T23:31:52.722Z,99357.34
2022-12-06T23:34:26.704Z,99365.44
2022-12-06T23:36:59.198Z,99357.97
2022-12-06T23:39:28.942Z,99353.38
2022-12-06T23:41:58.962Z,99350.66
2022-12-06T23:44:28.684Z,99346.69
2022-12-06T23:46:58.372Z,99348.13
2022-12-06T23:49:28.113Z,99340.78
2022-12-06T23:52:00.637Z,99333.41
2022-12-06T23:54:30.385Z,99330.66
2022-12-06T23:57:00.082Z,99327.31
2022-12-06T23:59:29.810Z,99319.34
